sensor_id;sensor_type;location;lat;lon;timestamp;temperature;humidity
7240;DHT22;3661;53.288;10.458;2023-02-04T00:01:18;3.00;99.90
7240;DHT22;3661;53.288;10.458;2023-02-04T00:03:53;3.00;99.90
7240;DHT22;3661;53.288;10.458;2023-02-04T00:06:25;2.90;99.90
7240;DHT22;3661;53.288;10.458;2023-02-04T00:08:57;2.90;99.90
7240;DHT22;3661;53.288;10.458;2023-02-04T00:11:30;2.90;99.90
7240;DHT22;3661;53.288;10.458;2023-02-04T00:14:02;2.80;99.90
7240;DHT22;3661;53.288;10.458;2023-02-04T00:16:36;2.80;99.90
7240;DHT22;3661;53.288;10.458;2023-02-04T00:19:08;2.80;99.90
7240;DHT22;3661;53.288;10.458;2023-02-04T00:21:40;2.80;99.90
7240;DHT22;3661;53.288;10.458;2023-02-04T00:24:12;2.80;99.90
7240;DHT22;3661;53.288;10.458;2023-02-04T00:26:44;2.80;99.90
7240;DHT22;3661;53.288;10.458;2023-02-04T00:29:16;2.80;99.90
7240;DHT22;3661;53.288;10.458;2023-02-04T00:31:50;2.80;99.90
7240;DHT22;3661;53.288;10.458;2023-02-04T00:34:22;2.80;99.90
7240;DHT22;3661;53.288;10.458;2023-02-04T00:36:54;2.80;99.90
7240;DHT22;3661;53.288;10.458;2023-02-04T00:39:26;2.80;99.90
7240;DHT22;3661;53.288;10.458;2023-02-04T00:41:59;2.80;99.90
7240;DHT22;3661;53.288;10.458;2023-02-04T00:44:31;2.80;99.90
7240;DHT22;3661;53.288;10.458;2023-02-04T00:47:04;2.70;99.90
7240;DHT22;3661;53.288;10.458;2023-02-04T00:49:37;2.70;99.90
7240;DHT22;3661;53.288;10.458;2023-02-04T00:52:11;2.70;99.90
7240;DHT22;3661;53.288;10.458;2023-02-04T00:54:46;2.70;99.90
7240;DHT22;3661;53.288;10.458;2023-02-04T00:57:18;2.70;99.90
7240;DHT22;3661;53.288;10.458;2023-02-04T00:59:50;2.70;99.90
7240;DHT22;3661;53.288;10.458;2023-02-04T01:02:24;2.70;99.90
7240;DHT22;3661;53.288;10.458;2023-02-04T01:04:56;2.70;99.90
7240;DHT22;3661;53.288;10.458;2023-02-04T01:07:28;2.70;99.90
7240;DHT22;3661;53.288;10.458;2023-02-04T01:10:00;2.70;99.90
7240;DHT22;3661;53.288;10.458;2023-02-04T01:12:32;2.70;99.90
7240;DHT22;3661;53.288;10.458;2023-02-04T01:15:05;2.70;99.90
7240;DHT22;3661;53.288;10.458;2023-02-04T01:17:38;2.70;99.90
7240;DHT22;3661;53.288;10.458;2023-02-04T01:20:12;2.70;99.90
7240;DHT22;3661;53.288;10.458;2023-02-04T01:22:44;2.70;99.90
7240;DHT22;3661;53.288;10.458;2023-02-04T01:25:17;2.70;99.90
7240;DHT22;3661;53.288;10.458;2023-02-04T01:27:50;2.70;99.90
7240;DHT22;3661;53.288;10.458;2023-02-04T01:30:22;2.70;99.90
7240;DHT22;3661;53.288;10.458;2023-02-04T01:32:55;2.70;99.90
7240;DHT22;3661;53.288;10.458;2023-02-04T01:35:27;2.70;99.90
7240;DHT22;3661;53.288;10.458;2023-02-04T01:38:00;2.70;99.90
7240;DHT22;3661;53.288;10.458;2023-02-04T01:40:34;2.70;99.90
7240;DHT22;3661;53.288;10.458;2023-02-04T01:43:06;2.70;99.90
7240;DHT22;3661;53.288;10.458;2023-02-04T01:45:38;2.70;99.90
7240;DHT22;3661;53.288;10.458;2023-02-04T01:48:12;2.70;99.90
7240;DHT22;3661;53.288;10.458;2023-02-04T01:50:52;2.70;99.90
7240;DHT22;3661;53.288;10.458;2023-02-04T01:53:28;2.70;99.90
7240;DHT22;3661;53.288;10.458;2023-02-04T01:56:01;2.70;99.90
7240;DHT22;3661;53.288;10.458;2023-02-04T01:58:33;2.70;99.90
7240;DHT22;3661;53.288;10.458;2023-02-04T02:01:10;2.70;99.90
7240;DHT22;3661;53.288;10.458;2023-02-04T02:03:44;2.70;99.90
7240;DHT22;3661;53.288;10.458;2023-02-04T02:06:16;2.60;99.90
7240;DHT22;3661;53.288;10.458;2023-02-04T02:08:49;2.70;99.90
7240;DHT22;3661;53.288;10.458;2023-02-04T02:11:21;2.70;99.90
7240;DHT22;3661;53.288;10.458;2023-02-04T02:13:53;2.70;99.90
7240;DHT22;3661;53.288;10.458;2023-02-04T02:16:25;2.70;99.90
7240;DHT22;3661;53.288;10.458;2023-02-04T02:19:00;2.70;99.90
7240;DHT22;3661;53.288;10.458;2023-02-04T02:21:37;2.70;99.90
7240;DHT22;3661;53.288;10.458;2023-02-04T02:24:30;2.60;99.90
7240;DHT22;3661;53.288;10.458;2023-02-04T02:27:05;2.60;99.90
7240;DHT22;3661;53.288;10.458;2023-02-04T02:29:40;2.60;99.90
7240;DHT22;3661;53.288;10.458;2023-02-04T02:32:13;2.60;99.90
7240;DHT22;3661;53.288;10.458;2023-02-04T02:34:46;2.60;99.90
7240;DHT22;3661;53.288;10.458;2023-02-04T02:37:19;2.60;99.90
7240;DHT22;3661;53.288;10.458;2023-02-04T02:39:53;2.50;99.90
7240;DHT22;3661;53.288;10.458;2023-02-04T02:42:27;2.50;99.90
7240;DHT22;3661;53.288;10.458;2023-02-04T02:45:02;2.40;99.90
7240;DHT22;3661;53.288;10.458;2023-02-04T02:47:37;2.40;99.90
7240;DHT22;3661;53.288;10.458;2023-02-04T02:50:12;2.40;99.90
7240;DHT22;3661;53.288;10.458;2023-02-04T02:52:47;2.40;99.90
7240;DHT22;3661;53.288;10.458;2023-02-04T02:55:22;2.30;99.90
7240;DHT22;3661;53.288;10.458;2023-02-04T02:57:57;2.30;99.90
7240;DHT22;3661;53.288;10.458;2023-02-04T03:00:29;2.30;99.90
7240;DHT22;3661;53.288;10.458;2023-02-04T03:03:06;2.30;99.90
7240;DHT22;3661;53.288;10.458;2023-02-04T03:05:41;2.20;99.90
7240;DHT22;3661;53.288;10.458;2023-02-04T03:08:14;2.20;99.90
7240;DHT22;3661;53.288;10.458;2023-02-04T03:10:48;2.20;99.90
7240;DHT22;3661;53.288;10.458;2023-02-04T03:13:21;2.10;99.90
7240;DHT22;3661;53.288;10.458;2023-02-04T03:15:54;2.10;99.90
7240;DHT22;3661;53.288;10.458;2023-02-04T03:18:27;2.00;99.90
7240;DHT22;3661;53.288;10.458;2023-02-04T03:21:01;2.00;99.90
7240;DHT22;3661;53.288;10.458;2023-02-04T03:23:36;2.00;99.90
7240;DHT22;3661;53.288;10.458;2023-02-04T03:26:10;1.90;99.90
7240;DHT22;3661;53.288;10.458;2023-02-04T03:28:43;1.90;99.90
7240;DHT22;3661;53.288;10.458;2023-02-04T03:31:15;1.90;99.90
7240;DHT22;3661;53.288;10.458;2023-02-04T03:33:48;1.80;99.90
7240;DHT22;3661;53.288;10.458;2023-02-04T03:36:21;1.80;99.90
7240;DHT22;3661;53.288;10.458;2023-02-04T03:38:53;1.80;99.90
7240;DHT22;3661;53.288;10.458;2023-02-04T03:41:28;1.80;99.90
7240;DHT22;3661;53.288;10.458;2023-02-04T03:44:00;1.80;99.90
7240;DHT22;3661;53.288;10.458;2023-02-04T03:46:32;1.80;99.90
7240;DHT22;3661;53.288;10.458;2023-02-04T03:49:05;1.80;99.90
7240;DHT22;3661;53.288;10.458;2023-02-04T03:51:37;1.80;99.90
7240;DHT22;3661;53.288;10.458;2023-02-04T03:54:11;1.80;99.90
7240;DHT22;3661;53.288;10.458;2023-02-04T03:56:45;1.80;99.90
7240;DHT22;3661;53.288;10.458;2023-02-04T03:59:17;1.80;99.90
7240;DHT22;3661;53.288;10.458;2023-02-04T04:01:50;1.80;99.90
7240;DHT22;3661;53.288;10.458;2023-02-04T04:04:23;1.80;99.90
7240;DHT22;3661;53.288;10.458;2023-02-04T04:06:55;1.80;99.90
7240;DHT22;3661;53.288;10.458;2023-02-04T04:09:28;1.80;99.90
7240;DHT22;3661;53.288;10.458;2023-02-04T04:12:02;1.80;99.90
7240;DHT22;3661;53.288;10.458;2023-02-04T04:14:34;1.90;99.90
7240;DHT22;3661;53.288;10.458;2023-02-04T04:17:07;1.90;99.90
7240;DHT22;3661;53.288;10.458;2023-02-04T04:19:39;1.90;99.90
7240;DHT22;3661;53.288;10.458;2023-02-04T04:22:15;1.90;99.90
7240;DHT22;3661;53.288;10.458;2023-02-04T04:24:47;1.90;99.90
7240;DHT22;3661;53.288;10.458;2023-02-04T04:27:21;1.90;99.90
7240;DHT22;3661;53.288;10.458;2023-02-04T04:29:53;1.90;99.90
7240;DHT22;3661;53.288;10.458;2023-02-04T04:32:27;1.90;99.90
7240;DHT22;3661;53.288;10.458;2023-02-04T04:35:01;1.90;99.90
7240;DHT22;3661;53.288;10.458;2023-02-04T04:37:33;1.90;99.90
7240;DHT22;3661;53.288;10.458;2023-02-04T04:40:06;1.90;99.90
7240;DHT22;3661;53.288;10.458;2023-02-04T04:42:41;1.90;99.90
7240;DHT22;3661;53.288;10.458;2023-02-04T04:45:13;1.90;99.90
7240;DHT22;3661;53.288;10.458;2023-02-04T04:47:45;1.90;99.90
7240;DHT22;3661;53.288;10.458;2023-02-04T04:50:20;1.90;99.90
7240;DHT22;3661;53.288;10.458;2023-02-04T04:52:53;1.90;99.90
7240;DHT22;3661;53.288;10.458;2023-02-04T04:55:25;1.90;99.90
7240;DHT22;3661;53.288;10.458;2023-02-04T04:57:59;1.90;99.90
7240;DHT22;3661;53.288;10.458;2023-02-04T05:00:32;1.90;99.90
7240;DHT22;3661;53.288;10.458;2023-02-04T05:03:04;1.90;99.90
7240;DHT22;3661;53.288;10.458;2023-02-04T05:05:36;1.90;99.90
7240;DHT22;3661;53.288;10.458;2023-02-04T05:08:10;1.90;99.90
7240;DHT22;3661;53.288;10.458;2023-02-04T05:10:46;1.90;99.90
7240;DHT22;3661;53.288;10.458;2023-02-04T05:13:21;1.90;99.90
7240;DHT22;3661;53.288;10.458;2023-02-04T05:15:55;1.90;99.90
7240;DHT22;3661;53.288;10.458;2023-02-04T05:18:28;1.90;99.90
7240;DHT22;3661;53.288;10.458;2023-02-04T05:21:01;1.90;99.90
7240;DHT22;3661;53.288;10.458;2023-02-04T05:23:34;1.90;99.90
7240;DHT22;3661;53.288;10.458;2023-02-04T05:26:06;1.80;99.90
7240;DHT22;3661;53.288;10.458;2023-02-04T05:28:39;1.80;99.90
7240;DHT22;3661;53.288;10.458;2023-02-04T05:31:16;1.90;99.90
7240;DHT22;3661;53.288;10.458;2023-02-04T05:33:49;1.80;99.90
7240;DHT22;3661;53.288;10.458;2023-02-04T05:36:21;1.80;99.90
7240;DHT22;3661;53.288;10.458;2023-02-04T05:38:53;1.80;99.90
7240;DHT22;3661;53.288;10.458;2023-02-04T05:41:25;1.80;99.90
7240;DHT22;3661;53.288;10.458;2023-02-04T05:43:59;1.80;99.90
7240;DHT22;3661;53.288;10.458;2023-02-04T05:46:31;1.80;99.90
7240;DHT22;3661;53.288;10.458;2023-02-04T05:49:03;1.80;99.90
7240;DHT22;3661;53.288;10.458;2023-02-04T05:51:35;1.80;99.90
7240;DHT22;3661;53.288;10.458;2023-02-04T05:54:13;1.80;99.90
7240;DHT22;3661;53.288;10.458;2023-02-04T05:56:49;1.80;99.90
7240;DHT22;3661;53.288;10.458;2023-02-04T05:59:22;1.80;99.90
7240;DHT22;3661;53.288;10.458;2023-02-04T06:01:55;1.80;99.90
7240;DHT22;3661;53.288;10.458;2023-02-04T06:04:28;1.70;99.90
7240;DHT22;3661;53.288;10.458;2023-02-04T06:07:00;1.70;99.90
7240;DHT22;3661;53.288;10.458;2023-02-04T06:09:33;1.70;99.90
7240;DHT22;3661;53.288;10.458;2023-02-04T06:12:05;1.70;99.90
7240;DHT22;3661;53.288;10.458;2023-02-04T06:14:39;1.70;99.90
7240;DHT22;3661;53.288;10.458;2023-02-04T06:17:11;1.60;99.90
7240;DHT22;3661;53.288;10.458;2023-02-04T06:19:43;1.60;99.90
7240;DHT22;3661;53.288;10.458;2023-02-04T06:22:15;1.50;99.90
7240;DHT22;3661;53.288;10.458;2023-02-04T06:24:48;1.50;99.90
7240;DHT22;3661;53.288;10.458;2023-02-04T06:27:20;1.50;99.90
7240;DHT22;3661;53.288;10.458;2023-02-04T06:29:57;1.50;99.90
7240;DHT22;3661;53.288;10.458;2023-02-04T06:32:29;1.40;99.90
7240;DHT22;3661;53.288;10.458;2023-02-04T06:35:02;1.40;99.90
7240;DHT22;3661;53.288;10.458;2023-02-04T06:37:34;1.30;99.90
7240;DHT22;3661;53.288;10.458;2023-02-04T06:40:09;1.30;99.90
7240;DHT22;3661;53.288;10.458;2023-02-04T06:42:44;1.20;99.90
7240;DHT22;3661;53.288;10.458;2023-02-04T06:45:17;1.20;99.90
7240;DHT22;3661;53.288;10.458;2023-02-04T06:47:49;1.10;99.90
7240;DHT22;3661;53.288;10.458;2023-02-04T06:50:22;1.00;99.90
7240;DHT22;3661;53.288;10.458;2023-02-04T06:52:54;1.00;99.90
7240;DHT22;3661;53.288;10.458;2023-02-04T06:55:26;0.90;99.90
7240;DHT22;3661;53.288;10.458;2023-02-04T06:57:59;0.90;99.90
7240;DHT22;3661;53.288;10.458;2023-02-04T07:00:33;0.80;99.90
7240;DHT22;3661;53.288;10.458;2023-02-04T07:03:05;0.70;99.90
7240;DHT22;3661;53.288;10.458;2023-02-04T07:05:38;0.70;99.90
7240;DHT22;3661;53.288;10.458;2023-02-04T07:08:10;0.60;99.90
7240;DHT22;3661;53.288;10.458;2023-02-04T07:10:43;0.60;99.90
7240;DHT22;3661;53.288;10.458;2023-02-04T07:13:15;0.50;99.90
7240;DHT22;3661;53.288;10.458;2023-02-04T07:15:51;0.50;99.90
7240;DHT22;3661;53.288;10.458;2023-02-04T07:18:23;0.40;99.90
7240;DHT22;3661;53.288;10.458;2023-02-04T07:20:55;0.40;99.90
7240;DHT22;3661;53.288;10.458;2023-02-04T07:23:28;0.30;99.90
7240;DHT22;3661;53.288;10.458;2023-02-04T07:26:06;0.30;99.90
7240;DHT22;3661;53.288;10.458;2023-02-04T07:28:38;0.30;99.90
7240;DHT22;3661;53.288;10.458;2023-02-04T07:31:13;0.20;99.90
7240;DHT22;3661;53.288;10.458;2023-02-04T07:33:45;0.20;99.90
7240;DHT22;3661;53.288;10.458;2023-02-04T07:36:17;0.10;99.90
7240;DHT22;3661;53.288;10.458;2023-02-04T07:38:49;0.10;99.90
7240;DHT22;3661;53.288;10.458;2023-02-04T07:41:21;0.10;99.90
7240;DHT22;3661;53.288;10.458;2023-02-04T07:43:54;0.00;99.90
7240;DHT22;3661;53.288;10.458;2023-02-04T07:46:27;0.00;99.90
7240;DHT22;3661;53.288;10.458;2023-02-04T07:49:01;0.00;99.90
7240;DHT22;3661;53.288;10.458;2023-02-04T07:51:33;-0.10;99.90
7240;DHT22;3661;53.288;10.458;2023-02-04T07:54:06;-0.10;99.90
7240;DHT22;3661;53.288;10.458;2023-02-04T07:56:40;-0.20;99.90
7240;DHT22;3661;53.288;10.458;2023-02-04T07:59:12;-0.20;99.90
7240;DHT22;3661;53.288;10.458;2023-02-04T08:01:45;-0.20;99.90
7240;DHT22;3661;53.288;10.458;2023-02-04T08:04:19;-0.20;99.90
7240;DHT22;3661;53.288;10.458;2023-02-04T08:06:51;-0.20;99.90
7240;DHT22;3661;53.288;10.458;2023-02-04T08:09:23;-0.20;99.90
7240;DHT22;3661;53.288;10.458;2023-02-04T08:11:59;-0.20;99.90
7240;DHT22;3661;53.288;10.458;2023-02-04T08:14:32;-0.20;99.90
7240;DHT22;3661;53.288;10.458;2023-02-04T08:17:05;-0.20;99.90
7240;DHT22;3661;53.288;10.458;2023-02-04T08:19:37;-0.20;99.90
7240;DHT22;3661;53.288;10.458;2023-02-04T08:22:10;-0.20;99.90
7240;DHT22;3661;53.288;10.458;2023-02-04T08:24:43;-0.20;99.90
7240;DHT22;3661;53.288;10.458;2023-02-04T08:27:15;-0.20;99.90
7240;DHT22;3661;53.288;10.458;2023-02-04T08:29:47;-0.10;99.90
7240;DHT22;3661;53.288;10.458;2023-02-04T08:32:21;-0.10;99.90
7240;DHT22;3661;53.288;10.458;2023-02-04T08:34:53;0.00;99.90
7240;DHT22;3661;53.288;10.458;2023-02-04T08:37:25;0.00;99.90
7240;DHT22;3661;53.288;10.458;2023-02-04T08:40:00;0.10;99.90
7240;DHT22;3661;53.288;10.458;2023-02-04T08:42:32;0.30;99.90
7240;DHT22;3661;53.288;10.458;2023-02-04T08:45:06;0.30;99.90
7240;DHT22;3661;53.288;10.458;2023-02-04T08:47:40;0.40;99.90
7240;DHT22;3661;53.288;10.458;2023-02-04T08:50:12;0.50;99.90
7240;DHT22;3661;53.288;10.458;2023-02-04T08:53:15;0.60;99.90
7240;DHT22;3661;53.288;10.458;2023-02-04T08:55:50;0.80;99.90
7240;DHT22;3661;53.288;10.458;2023-02-04T08:58:23;0.90;99.90
7240;DHT22;3661;53.288;10.458;2023-02-04T09:00:55;1.00;99.90
7240;DHT22;3661;53.288;10.458;2023-02-04T09:03:29;1.10;99.90
7240;DHT22;3661;53.288;10.458;2023-02-04T09:06:14;1.20;99.90
7240;DHT22;3661;53.288;10.458;2023-02-04T09:08:47;1.30;99.90
7240;DHT22;3661;53.288;10.458;2023-02-04T09:11:19;1.50;99.90
7240;DHT22;3661;53.288;10.458;2023-02-04T09:13:51;1.60;99.90
7240;DHT22;3661;53.288;10.458;2023-02-04T09:16:23;1.70;99.90
7240;DHT22;3661;53.288;10.458;2023-02-04T09:18:56;1.80;99.90
7240;DHT22;3661;53.288;10.458;2023-02-04T09:21:29;1.90;99.90
7240;DHT22;3661;53.288;10.458;2023-02-04T09:24:03;2.00;99.90
7240;DHT22;3661;53.288;10.458;2023-02-04T09:26:35;2.20;99.90
7240;DHT22;3661;53.288;10.458;2023-02-04T09:29:07;2.30;99.90
7240;DHT22;3661;53.288;10.458;2023-02-04T09:31:39;2.40;99.90
7240;DHT22;3661;53.288;10.458;2023-02-04T09:34:16;2.50;99.90
7240;DHT22;3661;53.288;10.458;2023-02-04T09:36:48;2.60;99.90
7240;DHT22;3661;53.288;10.458;2023-02-04T09:39:20;2.70;99.90
7240;DHT22;3661;53.288;10.458;2023-02-04T09:41:52;2.90;99.90
7240;DHT22;3661;53.288;10.458;2023-02-04T09:44:25;3.00;99.90
7240;DHT22;3661;53.288;10.458;2023-02-04T09:46:59;3.10;99.90
7240;DHT22;3661;53.288;10.458;2023-02-04T09:49:34;3.30;99.90
7240;DHT22;3661;53.288;10.458;2023-02-04T09:52:10;3.40;99.90
7240;DHT22;3661;53.288;10.458;2023-02-04T09:54:44;3.50;99.90
7240;DHT22;3661;53.288;10.458;2023-02-04T09:57:18;3.60;99.90
7240;DHT22;3661;53.288;10.458;2023-02-04T09:59:52;3.80;99.90
7240;DHT22;3661;53.288;10.458;2023-02-04T10:02:25;3.90;99.90
7240;DHT22;3661;53.288;10.458;2023-02-04T10:04:59;4.00;99.90
7240;DHT22;3661;53.288;10.458;2023-02-04T10:07:34;4.20;99.90
7240;DHT22;3661;53.288;10.458;2023-02-04T10:10:14;4.30;99.90
7240;DHT22;3661;53.288;10.458;2023-02-04T10:12:50;4.40;99.90
7240;DHT22;3661;53.288;10.458;2023-02-04T10:15:23;4.60;99.90
7240;DHT22;3661;53.288;10.458;2023-02-04T10:18:00;4.70;99.90
7240;DHT22;3661;53.288;10.458;2023-02-04T10:20:35;4.90;99.90
7240;DHT22;3661;53.288;10.458;2023-02-04T10:23:10;5.00;99.90
7240;DHT22;3661;53.288;10.458;2023-02-04T10:25:54;5.10;99.90
7240;DHT22;3661;53.288;10.458;2023-02-04T10:28:32;5.20;99.90
7240;DHT22;3661;53.288;10.458;2023-02-04T10:31:05;5.40;99.90
7240;DHT22;3661;53.288;10.458;2023-02-04T10:33:38;5.50;99.90
7240;DHT22;3661;53.288;10.458;2023-02-04T10:36:12;5.60;99.90
7240;DHT22;3661;53.288;10.458;2023-02-04T10:38:44;5.80;99.90
7240;DHT22;3661;53.288;10.458;2023-02-04T10:41:16;5.90;99.90
7240;DHT22;3661;53.288;10.458;2023-02-04T10:43:54;6.00;99.90
7240;DHT22;3661;53.288;10.458;2023-02-04T10:46:32;6.10;99.90
7240;DHT22;3661;53.288;10.458;2023-02-04T10:49:18;6.10;99.90
7240;DHT22;3661;53.288;10.458;2023-02-04T10:51:52;6.10;99.90
7240;DHT22;3661;53.288;10.458;2023-02-04T10:54:33;6.10;99.90
7240;DHT22;3661;53.288;10.458;2023-02-04T10:57:13;6.10;99.90
7240;DHT22;3661;53.288;10.458;2023-02-04T10:59:48;6.20;99.90
7240;DHT22;3661;53.288;10.458;2023-02-04T11:02:41;6.20;99.90
7240;DHT22;3661;53.288;10.458;2023-02-04T11:05:15;6.10;99.90
7240;DHT22;3661;53.288;10.458;2023-02-04T11:07:49;6.10;99.90
7240;DHT22;3661;53.288;10.458;2023-02-04T11:10:23;6.10;99.90
7240;DHT22;3661;53.288;10.458;2023-02-04T11:13:01;6.10;99.90
7240;DHT22;3661;53.288;10.458;2023-02-04T11:15:40;6.10;99.90
7240;DHT22;3661;53.288;10.458;2023-02-04T11:18:26;6.20;99.90
7240;DHT22;3661;53.288;10.458;2023-02-04T11:20:59;6.30;99.90
7240;DHT22;3661;53.288;10.458;2023-02-04T11:23:40;6.30;99.90
7240;DHT22;3661;53.288;10.458;2023-02-04T11:26:16;6.40;99.90
7240;DHT22;3661;53.288;10.458;2023-02-04T11:29:07;6.50;99.90
7240;DHT22;3661;53.288;10.458;2023-02-04T11:31:55;6.60;99.90
7240;DHT22;3661;53.288;10.458;2023-02-04T11:34:30;6.70;99.90
7240;DHT22;3661;53.288;10.458;2023-02-04T11:37:16;6.90;99.90
7240;DHT22;3661;53.288;10.458;2023-02-04T11:39:50;7.10;99.90
7240;DHT22;3661;53.288;10.458;2023-02-04T11:42:25;7.30;99.90
7240;DHT22;3661;53.288;10.458;2023-02-04T11:45:00;7.40;99.90
7240;DHT22;3661;53.288;10.458;2023-02-04T11:47:35;7.50;99.90
7240;DHT22;3661;53.288;10.458;2023-02-04T11:50:13;7.70;99.90
7240;DHT22;3661;53.288;10.458;2023-02-04T11:52:45;7.80;99.90
7240;DHT22;3661;53.288;10.458;2023-02-04T11:55:19;8.00;99.90
7240;DHT22;3661;53.288;10.458;2023-02-04T11:57:52;8.00;99.90
7240;DHT22;3661;53.288;10.458;2023-02-04T12:00:26;8.10;99.90
7240;DHT22;3661;53.288;10.458;2023-02-04T12:03:01;8.10;99.90
7240;DHT22;3661;53.288;10.458;2023-02-04T12:05:38;8.20;99.90
7240;DHT22;3661;53.288;10.458;2023-02-04T12:08:22;8.10;99.90
7240;DHT22;3661;53.288;10.458;2023-02-04T12:11:05;8.10;99.90
7240;DHT22;3661;53.288;10.458;2023-02-04T12:13:46;8.00;99.90
7240;DHT22;3661;53.288;10.458;2023-02-04T12:16:19;8.00;99.90
7240;DHT22;3661;53.288;10.458;2023-02-04T12:18:51;8.00;99.90
7240;DHT22;3661;53.288;10.458;2023-02-04T12:21:24;8.00;99.90
7240;DHT22;3661;53.288;10.458;2023-02-04T12:23:56;8.10;99.90
7240;DHT22;3661;53.288;10.458;2023-02-04T12:26:30;8.10;99.90
7240;DHT22;3661;53.288;10.458;2023-02-04T12:29:02;8.00;99.90
7240;DHT22;3661;53.288;10.458;2023-02-04T12:31:35;8.00;99.90
7240;DHT22;3661;53.288;10.458;2023-02-04T12:34:07;8.00;99.90
7240;DHT22;3661;53.288;10.458;2023-02-04T12:36:39;8.00;99.90
7240;DHT22;3661;53.288;10.458;2023-02-04T12:39:11;7.90;99.90
7240;DHT22;3661;53.288;10.458;2023-02-04T12:41:45;7.80;99.90
7240;DHT22;3661;53.288;10.458;2023-02-04T12:44:17;7.80;99.90
7240;DHT22;3661;53.288;10.458;2023-02-04T12:46:49;7.70;99.90
7240;DHT22;3661;53.288;10.458;2023-02-04T12:49:21;7.70;99.90
7240;DHT22;3661;53.288;10.458;2023-02-04T12:51:54;7.70;99.90
7240;DHT22;3661;53.288;10.458;2023-02-04T12:54:28;7.80;99.90
7240;DHT22;3661;53.288;10.458;2023-02-04T12:57:02;7.80;99.90
7240;DHT22;3661;53.288;10.458;2023-02-04T12:59:34;7.90;99.90
7240;DHT22;3661;53.288;10.458;2023-02-04T13:02:07;7.90;99.90
7240;DHT22;3661;53.288;10.458;2023-02-04T13:04:40;8.00;99.90
7240;DHT22;3661;53.288;10.458;2023-02-04T13:07:12;8.00;99.90
7240;DHT22;3661;53.288;10.458;2023-02-04T13:09:44;8.00;99.90
7240;DHT22;3661;53.288;10.458;2023-02-04T13:12:18;8.00;99.90
7240;DHT22;3661;53.288;10.458;2023-02-04T13:14:50;8.00;99.90
7240;DHT22;3661;53.288;10.458;2023-02-04T13:17:22;8.00;99.90
7240;DHT22;3661;53.288;10.458;2023-02-04T13:19:54;8.10;99.90
7240;DHT22;3661;53.288;10.458;2023-02-04T13:22:27;8.10;99.90
7240;DHT22;3661;53.288;10.458;2023-02-04T13:24:59;8.10;99.90
7240;DHT22;3661;53.288;10.458;2023-02-04T13:27:32;8.10;99.90
7240;DHT22;3661;53.288;10.458;2023-02-04T13:30:06;8.20;99.90
7240;DHT22;3661;53.288;10.458;2023-02-04T13:32:39;8.20;99.90
7240;DHT22;3661;53.288;10.458;2023-02-04T13:35:11;8.20;99.90
7240;DHT22;3661;53.288;10.458;2023-02-04T13:37:43;8.10;99.90
7240;DHT22;3661;53.288;10.458;2023-02-04T13:40:16;8.10;99.90
7240;DHT22;3661;53.288;10.458;2023-02-04T13:42:49;8.10;99.90
7240;DHT22;3661;53.288;10.458;2023-02-04T13:45:21;8.10;99.90
7240;DHT22;3661;53.288;10.458;2023-02-04T13:47:53;8.10;99.90
7240;DHT22;3661;53.288;10.458;2023-02-04T13:50:25;8.10;99.90
7240;DHT22;3661;53.288;10.458;2023-02-04T13:52:57;8.00;99.90
7240;DHT22;3661;53.288;10.458;2023-02-04T13:55:29;8.00;99.90
7240;DHT22;3661;53.288;10.458;2023-02-04T13:58:03;8.00;99.90
7240;DHT22;3661;53.288;10.458;2023-02-04T14:00:35;8.00;99.90
7240;DHT22;3661;53.288;10.458;2023-02-04T14:03:07;8.00;99.90
7240;DHT22;3661;53.288;10.458;2023-02-04T14:05:39;8.00;99.90
7240;DHT22;3661;53.288;10.458;2023-02-04T14:08:11;7.90;99.90
7240;DHT22;3661;53.288;10.458;2023-02-04T14:10:43;7.90;99.90
7240;DHT22;3661;53.288;10.458;2023-02-04T14:13:17;7.80;99.90
7240;DHT22;3661;53.288;10.458;2023-02-04T14:15:49;7.80;99.90
7240;DHT22;3661;53.288;10.458;2023-02-04T14:18:21;7.70;99.90
7240;DHT22;3661;53.288;10.458;2023-02-04T14:20:53;7.70;99.90
7240;DHT22;3661;53.288;10.458;2023-02-04T14:23:25;7.60;99.90
7240;DHT22;3661;53.288;10.458;2023-02-04T14:25:58;7.60;99.90
7240;DHT22;3661;53.288;10.458;2023-02-04T14:28:31;7.50;99.90
7240;DHT22;3661;53.288;10.458;2023-02-04T14:31:03;7.40;99.90
7240;DHT22;3661;53.288;10.458;2023-02-04T14:33:36;7.30;99.90
7240;DHT22;3661;53.288;10.458;2023-02-04T14:36:08;7.20;99.90
7240;DHT22;3661;53.288;10.458;2023-02-04T14:38:40;7.10;99.90
7240;DHT22;3661;53.288;10.458;2023-02-04T14:41:12;7.00;99.90
7240;DHT22;3661;53.288;10.458;2023-02-04T14:43:48;6.90;99.90
7240;DHT22;3661;53.288;10.458;2023-02-04T14:46:20;6.80;99.90
7240;DHT22;3661;53.288;10.458;2023-02-04T14:48:52;6.80;99.90
7240;DHT22;3661;53.288;10.458;2023-02-04T14:51:24;6.70;99.90
7240;DHT22;3661;53.288;10.458;2023-02-04T14:53:56;6.60;99.90
7240;DHT22;3661;53.288;10.458;2023-02-04T14:56:28;6.50;99.90
7240;DHT22;3661;53.288;10.458;2023-02-04T14:59:02;6.40;99.90
7240;DHT22;3661;53.288;10.458;2023-02-04T15:01:34;6.30;99.90
7240;DHT22;3661;53.288;10.458;2023-02-04T15:04:06;6.20;99.90
7240;DHT22;3661;53.288;10.458;2023-02-04T15:06:38;6.10;99.90
7240;DHT22;3661;53.288;10.458;2023-02-04T15:09:11;6.00;99.90
7240;DHT22;3661;53.288;10.458;2023-02-04T15:11:43;5.90;99.90
7240;DHT22;3661;53.288;10.458;2023-02-04T15:14:16;5.80;99.90
7240;DHT22;3661;53.288;10.458;2023-02-04T15:16:49;5.70;99.90
7240;DHT22;3661;53.288;10.458;2023-02-04T15:19:21;5.60;99.90
7240;DHT22;3661;53.288;10.458;2023-02-04T15:21:54;5.50;99.90
7240;DHT22;3661;53.288;10.458;2023-02-04T15:24:26;5.30;99.90
7240;DHT22;3661;53.288;10.458;2023-02-04T15:27:00;5.20;99.90
7240;DHT22;3661;53.288;10.458;2023-02-04T15:29:33;5.10;99.90
7240;DHT22;3661;53.288;10.458;2023-02-04T15:32:05;5.00;99.90
7240;DHT22;3661;53.288;10.458;2023-02-04T15:34:39;4.90;99.90
7240;DHT22;3661;53.288;10.458;2023-02-04T15:37:11;4.80;99.90
7240;DHT22;3661;53.288;10.458;2023-02-04T15:39:43;4.60;99.90
7240;DHT22;3661;53.288;10.458;2023-02-04T15:42:15;4.50;99.90
7240;DHT22;3661;53.288;10.458;2023-02-04T15:44:49;4.40;99.90
7240;DHT22;3661;53.288;10.458;2023-02-04T15:47:21;4.30;99.90
7240;DHT22;3661;53.288;10.458;2023-02-04T15:49:53;4.20;99.90
7240;DHT22;3661;53.288;10.458;2023-02-04T15:52:25;4.10;99.90
7240;DHT22;3661;53.288;10.458;2023-02-04T15:54:57;4.00;99.90
7240;DHT22;3661;53.288;10.458;2023-02-04T15:57:29;3.90;99.90
7240;DHT22;3661;53.288;10.458;2023-02-04T16:00:03;3.70;99.90
7240;DHT22;3661;53.288;10.458;2023-02-04T16:02:35;3.60;99.90
7240;DHT22;3661;53.288;10.458;2023-02-04T16:05:07;3.50;99.90
7240;DHT22;3661;53.288;10.458;2023-02-04T16:07:40;3.40;99.90
7240;DHT22;3661;53.288;10.458;2023-02-04T16:10:12;3.30;99.90
7240;DHT22;3661;53.288;10.458;2023-02-04T16:12:44;3.20;99.90
7240;DHT22;3661;53.288;10.458;2023-02-04T16:15:18;3.10;99.90
7240;DHT22;3661;53.288;10.458;2023-02-04T16:17:50;3.00;99.90
7240;DHT22;3661;53.288;10.458;2023-02-04T16:20:25;2.90;99.90
7240;DHT22;3661;53.288;10.458;2023-02-04T16:22:57;2.80;99.90
7240;DHT22;3661;53.288;10.458;2023-02-04T16:25:29;2.70;99.90
7240;DHT22;3661;53.288;10.458;2023-02-04T16:28:01;2.60;99.90
7240;DHT22;3661;53.288;10.458;2023-02-04T16:30:35;2.50;99.90
7240;DHT22;3661;53.288;10.458;2023-02-04T16:33:09;2.40;99.90
7240;DHT22;3661;53.288;10.458;2023-02-04T16:35:59;2.30;99.90
7240;DHT22;3661;53.288;10.458;2023-02-04T16:38:34;2.30;99.90
7240;DHT22;3661;53.288;10.458;2023-02-04T16:41:09;2.20;99.90
7240;DHT22;3661;53.288;10.458;2023-02-04T16:43:41;2.10;99.90